sensor_id;sensor_type;location;lat;lon;timestamp;P1;durP1;ratioP1;P2;durP2;ratioP2
61741;SDS011;47650;49.848;9.620;2023-03-04T00:01:00;19.33;;;10.13;;
61741;SDS011;47650;49.848;9.620;2023-03-04T00:03:33;18.35;;;10.30;;
61741;SDS011;47650;49.848;9.620;2023-03-04T00:06:04;19.70;;;10.23;;
61741;SDS011;47650;49.848;9.620;2023-03-04T00:08:29;24.50;;;10.65;;
61741;SDS011;47650;49.848;9.620;2023-03-04T00:10:55;17.52;;;10.18;;
61741;SDS011;47650;49.848;9.620;2023-03-04T00:13:20;20.65;;;10.13;;
61741;SDS011;47650;49.848;9.620;2023-03-04T00:15:47;18.13;;;10.15;;
61741;SDS011;47650;49.848;9.620;2023-03-04T00:18:15;16.75;;;8.70;;
61741;SDS011;47650;49.848;9.620;2023-03-04T00:20:54;20.35;;;10.50;;
61741;SDS011;47650;49.848;9.620;2023-03-04T00:23:22;19.05;;;10.13;;
61741;SDS011;47650;49.848;9.620;2023-03-04T00:25:51;22.05;;;10.68;;
61741;SDS011;47650;49.848;9.620;2023-03-04T00:28:16;19.35;;;10.75;;
61741;SDS011;47650;49.848;9.620;2023-03-04T00:30:47;18.65;;;10.57;;
61741;SDS011;47650;49.848;9.620;2023-03-04T00:33:18;19.75;;;10.95;;
61741;SDS011;47650;49.848;9.620;2023-03-04T00:35:44;20.50;;;9.65;;
61741;SDS011;47650;49.848;9.620;2023-03-04T00:38:18;19.20;;;10.40;;
61741;SDS011;47650;49.848;9.620;2023-03-04T00:40:43;19.73;;;10.45;;
61741;SDS011;47650;49.848;9.620;2023-03-04T00:43:09;22.33;;;11.45;;
61741;SDS011;47650;49.848;9.620;2023-03-04T00:45:45;25.70;;;12.13;;
61741;SDS011;47650;49.848;9.620;2023-03-04T00:48:12;21.65;;;10.88;;
61741;SDS011;47650;49.848;9.620;2023-03-04T00:50:37;26.55;;;11.80;;
61741;SDS011;47650;49.848;9.620;2023-03-04T00:53:05;25.88;;;12.30;;
61741;SDS011;47650;49.848;9.620;2023-03-04T00:55:31;26.48;;;12.63;;
61741;SDS011;47650;49.848;9.620;2023-03-04T00:57:59;28.15;;;12.50;;
61741;SDS011;47650;49.848;9.620;2023-03-04T01:00:34;25.50;;;12.48;;
61741;SDS011;47650;49.848;9.620;2023-03-04T01:03:04;26.77;;;12.38;;
61741;SDS011;47650;49.848;9.620;2023-03-04T01:05:30;24.70;;;11.65;;
61741;SDS011;47650;49.848;9.620;2023-03-04T01:08:00;27.17;;;12.70;;
61741;SDS011;47650;49.848;9.620;2023-03-04T01:10:26;32.92;;;14.63;;
61741;SDS011;47650;49.848;9.620;2023-03-04T01:12:52;30.90;;;13.10;;
61741;SDS011;47650;49.848;9.620;2023-03-04T01:15:18;30.35;;;13.90;;
61741;SDS011;47650;49.848;9.620;2023-03-04T01:17:44;29.73;;;12.82;;
61741;SDS011;47650;49.848;9.620;2023-03-04T01:20:10;27.25;;;12.95;;
61741;SDS011;47650;49.848;9.620;2023-03-04T01:22:40;30.63;;;13.10;;
61741;SDS011;47650;49.848;9.620;2023-03-04T01:25:06;30.27;;;13.63;;
61741;SDS011;47650;49.848;9.620;2023-03-04T01:27:34;29.90;;;13.43;;
61741;SDS011;47650;49.848;9.620;2023-03-04T01:30:02;31.85;;;13.25;;
61741;SDS011;47650;49.848;9.620;2023-03-04T01:32:30;30.88;;;12.30;;
61741;SDS011;47650;49.848;9.620;2023-03-04T01:34:57;35.55;;;13.45;;
61741;SDS011;47650;49.848;9.620;2023-03-04T01:37:30;28.10;;;12.90;;
61741;SDS011;47650;49.848;9.620;2023-03-04T01:39:55;25.80;;;11.77;;
61741;SDS011;47650;49.848;9.620;2023-03-04T01:42:31;34.95;;;13.98;;
61741;SDS011;47650;49.848;9.620;2023-03-04T01:45:00;33.38;;;12.45;;
61741;SDS011;47650;49.848;9.620;2023-03-04T01:47:32;32.03;;;13.27;;
61741;SDS011;47650;49.848;9.620;2023-03-04T01:50:00;30.08;;;13.10;;
61741;SDS011;47650;49.848;9.620;2023-03-04T01:52:34;24.08;;;12.55;;
61741;SDS011;47650;49.848;9.620;2023-03-04T01:55:00;25.80;;;12.55;;
61741;SDS011;47650;49.848;9.620;2023-03-04T01:57:33;24.75;;;12.50;;
61741;SDS011;47650;49.848;9.620;2023-03-04T02:00:13;22.30;;;11.38;;
61741;SDS011;47650;49.848;9.620;2023-03-04T02:02:45;21.55;;;10.82;;
61741;SDS011;47650;49.848;9.620;2023-03-04T02:05:15;22.65;;;10.73;;
61741;SDS011;47650;49.848;9.620;2023-03-04T02:07:42;19.80;;;10.38;;
61741;SDS011;47650;49.848;9.620;2023-03-04T02:10:08;18.58;;;10.88;;
61741;SDS011;47650;49.848;9.620;2023-03-04T02:12:44;24.15;;;12.13;;
61741;SDS011;47650;49.848;9.620;2023-03-04T02:15:10;24.63;;;12.50;;
61741;SDS011;47650;49.848;9.620;2023-03-04T02:17:40;20.42;;;10.98;;
61741;SDS011;47650;49.848;9.620;2023-03-04T02:20:42;25.33;;;12.23;;
61741;SDS011;47650;49.848;9.620;2023-03-04T02:23:31;16.73;;;8.82;;
61741;SDS011;47650;49.848;9.620;2023-03-04T02:29:09;18.42;;;9.98;;
61741;SDS011;47650;49.848;9.620;2023-03-04T02:31:38;19.40;;;11.30;;
61741;SDS011;47650;49.848;9.620;2023-03-04T02:34:16;18.08;;;10.27;;
61741;SDS011;47650;49.848;9.620;2023-03-04T02:36:46;21.15;;;11.00;;
61741;SDS011;47650;49.848;9.620;2023-03-04T02:41:44;20.27;;;11.25;;
61741;SDS011;47650;49.848;9.620;2023-03-04T02:44:19;17.40;;;10.25;;
61741;SDS011;47650;49.848;9.620;2023-03-04T02:46:52;19.63;;;11.98;;
61741;SDS011;47650;49.848;9.620;2023-03-04T02:49:18;20.08;;;11.50;;
61741;SDS011;47650;49.848;9.620;2023-03-04T02:51:45;19.10;;;11.27;;
61741;SDS011;47650;49.848;9.620;2023-03-04T02:54:21;19.27;;;11.02;;
61741;SDS011;47650;49.848;9.620;2023-03-04T02:56:54;16.60;;;10.15;;
61741;SDS011;47650;49.848;9.620;2023-03-04T02:59:31;19.30;;;12.13;;
61741;SDS011;47650;49.848;9.620;2023-03-04T03:01:59;19.30;;;11.82;;
61741;SDS011;47650;49.848;9.620;2023-03-04T03:04:26;17.70;;;10.82;;
61741;SDS011;47650;49.848;9.620;2023-03-04T03:06:54;27.00;;;16.48;;
61741;SDS011;47650;49.848;9.620;2023-03-04T03:09:20;26.10;;;15.18;;
61741;SDS011;47650;49.848;9.620;2023-03-04T03:11:45;21.65;;;13.65;;
61741;SDS011;47650;49.848;9.620;2023-03-04T03:14:16;20.17;;;13.45;;
61741;SDS011;47650;49.848;9.620;2023-03-04T03:16:43;21.33;;;13.13;;
61741;SDS011;47650;49.848;9.620;2023-03-04T03:19:10;24.15;;;12.73;;
61741;SDS011;47650;49.848;9.620;2023-03-04T03:21:35;22.98;;;13.90;;
61741;SDS011;47650;49.848;9.620;2023-03-04T03:24:01;21.88;;;13.80;;
61741;SDS011;47650;49.848;9.620;2023-03-04T03:26:26;21.05;;;13.48;;
61741;SDS011;47650;49.848;9.620;2023-03-04T03:28:52;19.85;;;13.10;;
61741;SDS011;47650;49.848;9.620;2023-03-04T03:31:21;20.02;;;12.98;;
61741;SDS011;47650;49.848;9.620;2023-03-04T03:33:52;20.45;;;13.85;;
61741;SDS011;47650;49.848;9.620;2023-03-04T03:36:18;21.17;;;13.90;;
61741;SDS011;47650;49.848;9.620;2023-03-04T03:38:43;17.65;;;11.50;;
61741;SDS011;47650;49.848;9.620;2023-03-04T03:41:11;24.40;;;14.98;;
61741;SDS011;47650;49.848;9.620;2023-03-04T03:43:38;24.05;;;14.27;;
61741;SDS011;47650;49.848;9.620;2023-03-04T03:46:04;21.27;;;13.60;;
61741;SDS011;47650;49.848;9.620;2023-03-04T03:48:30;21.90;;;14.40;;
61741;SDS011;47650;49.848;9.620;2023-03-04T03:50:56;21.42;;;14.48;;
61741;SDS011;47650;49.848;9.620;2023-03-04T03:53:22;19.48;;;13.98;;
61741;SDS011;47650;49.848;9.620;2023-03-04T03:55:47;20.70;;;13.55;;
61741;SDS011;47650;49.848;9.620;2023-03-04T03:58:15;23.00;;;14.30;;
61741;SDS011;47650;49.848;9.620;2023-03-04T04:00:45;19.73;;;13.30;;
61741;SDS011;47650;49.848;9.620;2023-03-04T04:03:12;21.27;;;13.57;;
61741;SDS011;47650;49.848;9.620;2023-03-04T04:05:39;21.95;;;14.10;;
61741;SDS011;47650;49.848;9.620;2023-03-04T04:08:09;26.60;;;14.98;;
61741;SDS011;47650;49.848;9.620;2023-03-04T04:10:37;21.92;;;14.13;;
61741;SDS011;47650;49.848;9.620;2023-03-04T04:13:10;21.48;;;14.70;;
61741;SDS011;47650;49.848;9.620;2023-03-04T04:15:45;20.92;;;13.73;;
61741;SDS011;47650;49.848;9.620;2023-03-04T04:18:11;22.80;;;15.15;;
61741;SDS011;47650;49.848;9.620;2023-03-04T04:20:45;17.95;;;13.13;;
61741;SDS011;47650;49.848;9.620;2023-03-04T04:25:43;21.38;;;12.82;;
61741;SDS011;47650;49.848;9.620;2023-03-04T04:28:10;25.05;;;16.08;;
61741;SDS011;47650;49.848;9.620;2023-03-04T04:30:36;22.13;;;15.35;;
61741;SDS011;47650;49.848;9.620;2023-03-04T04:33:02;23.17;;;15.57;;
61741;SDS011;47650;49.848;9.620;2023-03-04T04:35:29;19.42;;;14.38;;
61741;SDS011;47650;49.848;9.620;2023-03-04T04:37:56;21.63;;;15.40;;
61741;SDS011;47650;49.848;9.620;2023-03-04T04:40:21;24.20;;;15.55;;
61741;SDS011;47650;49.848;9.620;2023-03-04T04:42:46;20.75;;;14.13;;
61741;SDS011;47650;49.848;9.620;2023-03-04T04:45:12;22.23;;;15.05;;
61741;SDS011;47650;49.848;9.620;2023-03-04T04:47:37;26.08;;;15.65;;
61741;SDS011;47650;49.848;9.620;2023-03-04T04:50:02;20.50;;;14.98;;
61741;SDS011;47650;49.848;9.620;2023-03-04T04:52:28;23.60;;;14.93;;
61741;SDS011;47650;49.848;9.620;2023-03-04T04:55:00;28.80;;;18.88;;
61741;SDS011;47650;49.848;9.620;2023-03-04T04:57:27;24.17;;;16.70;;
61741;SDS011;47650;49.848;9.620;2023-03-04T04:59:55;23.23;;;15.95;;
61741;SDS011;47650;49.848;9.620;2023-03-04T05:02:21;23.98;;;16.30;;
61741;SDS011;47650;49.848;9.620;2023-03-04T05:04:53;20.38;;;14.35;;
61741;SDS011;47650;49.848;9.620;2023-03-04T05:07:19;22.77;;;15.95;;
61741;SDS011;47650;49.848;9.620;2023-03-04T05:09:47;27.02;;;17.88;;
61741;SDS011;47650;49.848;9.620;2023-03-04T05:12:12;25.70;;;17.13;;
61741;SDS011;47650;49.848;9.620;2023-03-04T05:14:38;22.63;;;15.90;;
61741;SDS011;47650;49.848;9.620;2023-03-04T05:17:04;25.40;;;16.38;;
61741;SDS011;47650;49.848;9.620;2023-03-04T05:19:30;25.90;;;18.17;;
61741;SDS011;47650;49.848;9.620;2023-03-04T05:22:06;23.65;;;16.23;;
61741;SDS011;47650;49.848;9.620;2023-03-04T05:24:31;22.35;;;15.00;;
61741;SDS011;47650;49.848;9.620;2023-03-04T05:26:58;26.27;;;17.95;;
61741;SDS011;47650;49.848;9.620;2023-03-04T05:29:24;23.50;;;16.40;;
61741;SDS011;47650;49.848;9.620;2023-03-04T05:31:49;27.85;;;17.33;;
61741;SDS011;47650;49.848;9.620;2023-03-04T05:34:14;24.35;;;17.33;;
61741;SDS011;47650;49.848;9.620;2023-03-04T05:36:56;22.80;;;15.50;;
61741;SDS011;47650;49.848;9.620;2023-03-04T05:39:31;26.25;;;17.55;;
61741;SDS011;47650;49.848;9.620;2023-03-04T05:41:57;25.83;;;16.77;;
61741;SDS011;47650;49.848;9.620;2023-03-04T05:44:22;23.58;;;16.23;;
61741;SDS011;47650;49.848;9.620;2023-03-04T05:46:48;22.42;;;15.50;;
61741;SDS011;47650;49.848;9.620;2023-03-04T05:49:14;21.63;;;14.68;;
61741;SDS011;47650;49.848;9.620;2023-03-04T05:51:41;23.67;;;15.15;;
61741;SDS011;47650;49.848;9.620;2023-03-04T05:54:08;20.80;;;13.90;;
61741;SDS011;47650;49.848;9.620;2023-03-04T05:56:33;22.35;;;14.95;;
61741;SDS011;47650;49.848;9.620;2023-03-04T05:59:09;22.15;;;15.10;;
61741;SDS011;47650;49.848;9.620;2023-03-04T06:01:42;22.40;;;15.63;;
61741;SDS011;47650;49.848;9.620;2023-03-04T06:04:08;19.60;;;14.82;;
61741;SDS011;47650;49.848;9.620;2023-03-04T06:06:34;23.65;;;16.33;;
61741;SDS011;47650;49.848;9.620;2023-03-04T06:08:59;22.83;;;16.08;;
61741;SDS011;47650;49.848;9.620;2023-03-04T06:11:28;21.17;;;15.50;;
61741;SDS011;47650;49.848;9.620;2023-03-04T06:13:53;22.55;;;14.75;;
61741;SDS011;47650;49.848;9.620;2023-03-04T06:16:19;19.83;;;13.93;;
61741;SDS011;47650;49.848;9.620;2023-03-04T06:18:45;20.30;;;14.45;;
61741;SDS011;47650;49.848;9.620;2023-03-04T06:21:10;18.67;;;14.10;;
61741;SDS011;47650;49.848;9.620;2023-03-04T06:23:37;18.60;;;13.68;;
61741;SDS011;47650;49.848;9.620;2023-03-04T06:26:04;29.52;;;19.83;;
61741;SDS011;47650;49.848;9.620;2023-03-04T06:28:39;24.90;;;17.40;;
61741;SDS011;47650;49.848;9.620;2023-03-04T06:31:05;24.00;;;14.65;;
61741;SDS011;47650;49.848;9.620;2023-03-04T06:33:33;20.88;;;14.77;;
61741;SDS011;47650;49.848;9.620;2023-03-04T06:35:59;23.20;;;15.85;;
61741;SDS011;47650;49.848;9.620;2023-03-04T06:38:30;19.40;;;14.80;;
61741;SDS011;47650;49.848;9.620;2023-03-04T06:41:04;17.27;;;13.40;;
61741;SDS011;47650;49.848;9.620;2023-03-04T06:43:44;19.92;;;13.77;;
61741;SDS011;47650;49.848;9.620;2023-03-04T06:46:10;20.38;;;13.43;;
61741;SDS011;47650;49.848;9.620;2023-03-04T06:48:35;18.63;;;12.50;;
61741;SDS011;47650;49.848;9.620;2023-03-04T06:51:05;17.52;;;13.65;;
61741;SDS011;47650;49.848;9.620;2023-03-04T06:53:33;19.70;;;13.85;;
61741;SDS011;47650;49.848;9.620;2023-03-04T06:56:03;21.38;;;15.23;;
61741;SDS011;47650;49.848;9.620;2023-03-04T06:58:32;19.85;;;14.40;;
61741;SDS011;47650;49.848;9.620;2023-03-04T07:06:12;16.80;;;13.02;;
61741;SDS011;47650;49.848;9.620;2023-03-04T07:08:44;16.42;;;12.15;;
61741;SDS011;47650;49.848;9.620;2023-03-04T07:11:18;19.13;;;13.18;;
61741;SDS011;47650;49.848;9.620;2023-03-04T07:13:44;20.30;;;14.05;;
61741;SDS011;47650;49.848;9.620;2023-03-04T07:16:13;17.83;;;13.45;;
61741;SDS011;47650;49.848;9.620;2023-03-04T07:21:17;15.52;;;12.15;;
61741;SDS011;47650;49.848;9.620;2023-03-04T07:23:51;16.27;;;12.13;;
61741;SDS011;47650;49.848;9.620;2023-03-04T07:26:18;17.40;;;12.20;;
61741;SDS011;47650;49.848;9.620;2023-03-04T07:28:44;15.90;;;12.15;;
61741;SDS011;47650;49.848;9.620;2023-03-04T07:31:12;16.27;;;12.52;;
61741;SDS011;47650;49.848;9.620;2023-03-04T07:34:01;16.27;;;12.77;;
61741;SDS011;47650;49.848;9.620;2023-03-04T07:36:33;16.38;;;12.23;;
61741;SDS011;47650;49.848;9.620;2023-03-04T07:39:00;17.00;;;12.65;;
61741;SDS011;47650;49.848;9.620;2023-03-04T07:41:31;17.77;;;13.35;;
61741;SDS011;47650;49.848;9.620;2023-03-04T07:44:00;17.20;;;12.45;;
61741;SDS011;47650;49.848;9.620;2023-03-04T07:46:26;15.90;;;12.10;;
61741;SDS011;47650;49.848;9.620;2023-03-04T07:48:51;15.38;;;12.10;;
61741;SDS011;47650;49.848;9.620;2023-03-04T07:51:22;16.83;;;14.10;;
61741;SDS011;47650;49.848;9.620;2023-03-04T07:53:50;16.27;;;12.27;;
61741;SDS011;47650;49.848;9.620;2023-03-04T07:56:19;17.90;;;12.95;;
61741;SDS011;47650;49.848;9.620;2023-03-04T07:58:49;17.25;;;13.30;;
61741;SDS011;47650;49.848;9.620;2023-03-04T08:01:22;15.55;;;12.32;;
61741;SDS011;47650;49.848;9.620;2023-03-04T08:03:58;15.98;;;13.02;;
61741;SDS011;47650;49.848;9.620;2023-03-04T08:06:24;16.77;;;13.65;;
61741;SDS011;47650;49.848;9.620;2023-03-04T08:09:01;17.30;;;13.23;;
61741;SDS011;47650;49.848;9.620;2023-03-04T08:11:31;18.30;;;12.85;;
61741;SDS011;47650;49.848;9.620;2023-03-04T08:13:58;17.35;;;13.25;;
61741;SDS011;47650;49.848;9.620;2023-03-04T08:16:24;16.30;;;12.38;;
61741;SDS011;47650;49.848;9.620;2023-03-04T08:18:51;14.45;;;11.98;;
61741;SDS011;47650;49.848;9.620;2023-03-04T08:21:19;15.80;;;12.50;;
61741;SDS011;47650;49.848;9.620;2023-03-04T08:23:46;15.82;;;11.77;;
61741;SDS011;47650;49.848;9.620;2023-03-04T08:26:15;15.43;;;10.35;;
61741;SDS011;47650;49.848;9.620;2023-03-04T08:28:48;17.08;;;11.18;;
61741;SDS011;47650;49.848;9.620;2023-03-04T08:31:16;17.88;;;11.20;;
61741;SDS011;47650;49.848;9.620;2023-03-04T08:33:44;16.08;;;11.55;;
61741;SDS011;47650;49.848;9.620;2023-03-04T08:36:12;15.35;;;10.52;;
61741;SDS011;47650;49.848;9.620;2023-03-04T08:38:37;13.63;;;10.85;;
61741;SDS011;47650;49.848;9.620;2023-03-04T08:41:03;13.93;;;10.93;;
61741;SDS011;47650;49.848;9.620;2023-03-04T08:43:31;13.18;;;10.60;;
61741;SDS011;47650;49.848;9.620;2023-03-04T08:45:58;15.38;;;11.43;;
61741;SDS011;47650;49.848;9.620;2023-03-04T08:48:26;15.90;;;10.73;;
61741;SDS011;47650;49.848;9.620;2023-03-04T08:50:55;15.60;;;9.50;;
61741;SDS011;47650;49.848;9.620;2023-03-04T08:53:22;12.48;;;9.45;;
61741;SDS011;47650;49.848;9.620;2023-03-04T08:55:51;14.23;;;9.73;;
61741;SDS011;47650;49.848;9.620;2023-03-04T08:58:17;17.80;;;9.50;;
61741;SDS011;47650;49.848;9.620;2023-03-04T09:00:44;13.50;;;9.18;;
61741;SDS011;47650;49.848;9.620;2023-03-04T09:03:14;15.13;;;9.90;;
61741;SDS011;47650;49.848;9.620;2023-03-04T09:05:43;14.93;;;8.75;;
61741;SDS011;47650;49.848;9.620;2023-03-04T09:08:10;12.70;;;9.43;;
61741;SDS011;47650;49.848;9.620;2023-03-04T09:10:37;14.18;;;9.50;;
61741;SDS011;47650;49.848;9.620;2023-03-04T09:13:04;15.57;;;10.25;;
61741;SDS011;47650;49.848;9.620;2023-03-04T09:15:30;13.38;;;9.15;;
61741;SDS011;47650;49.848;9.620;2023-03-04T09:17:56;14.63;;;10.48;;
61741;SDS011;47650;49.848;9.620;2023-03-04T09:20:21;14.02;;;9.65;;
61741;SDS011;47650;49.848;9.620;2023-03-04T09:22:49;14.70;;;9.25;;
61741;SDS011;47650;49.848;9.620;2023-03-04T09:25:14;12.93;;;7.88;;
61741;SDS011;47650;49.848;9.620;2023-03-04T09:27:40;13.70;;;8.50;;
61741;SDS011;47650;49.848;9.620;2023-03-04T09:30:06;15.00;;;9.25;;
61741;SDS011;47650;49.848;9.620;2023-03-04T09:32:33;14.65;;;9.05;;
61741;SDS011;47650;49.848;9.620;2023-03-04T09:37:27;15.38;;;8.35;;
61741;SDS011;47650;49.848;9.620;2023-03-04T09:39:55;16.25;;;8.02;;
61741;SDS011;47650;49.848;9.620;2023-03-04T09:42:24;15.38;;;9.02;;
61741;SDS011;47650;49.848;9.620;2023-03-04T09:44:58;14.40;;;8.85;;
61741;SDS011;47650;49.848;9.620;2023-03-04T09:47:24;12.95;;;8.35;;
61741;SDS011;47650;49.848;9.620;2023-03-04T09:49:55;13.95;;;8.98;;
61741;SDS011;47650;49.848;9.620;2023-03-04T09:52:37;15.98;;;8.68;;
61741;SDS011;47650;49.848;9.620;2023-03-04T09:55:22;13.98;;;8.85;;
61741;SDS011;47650;49.848;9.620;2023-03-04T09:57:55;16.15;;;8.73;;
61741;SDS011;47650;49.848;9.620;2023-03-04T10:11:45;15.15;;;8.77;;
61741;SDS011;47650;49.848;9.620;2023-03-04T10:16:57;16.95;;;8.38;;
61741;SDS011;47650;49.848;9.620;2023-03-04T10:19:50;14.02;;;7.43;;
61741;SDS011;47650;49.848;9.620;2023-03-04T10:22:22;16.70;;;8.23;;
61741;SDS011;47650;49.848;9.620;2023-03-04T10:28:00;14.40;;;8.13;;
61741;SDS011;47650;49.848;9.620;2023-03-04T10:33:20;16.55;;;8.65;;
61741;SDS011;47650;49.848;9.620;2023-03-04T10:36:11;16.25;;;7.97;;
61741;SDS011;47650;49.848;9.620;2023-03-04T10:39:12;15.75;;;6.60;;
61741;SDS011;47650;49.848;9.620;2023-03-04T10:41:43;19.92;;;9.13;;
61741;SDS011;47650;49.848;9.620;2023-03-04T10:46:46;13.43;;;7.95;;
61741;SDS011;47650;49.848;9.620;2023-03-04T10:49:14;21.33;;;8.30;;
61741;SDS011;47650;49.848;9.620;2023-03-04T10:56:52;16.30;;;7.50;;
61741;SDS011;47650;49.848;9.620;2023-03-04T10:59:33;22.13;;;8.63;;
61741;SDS011;47650;49.848;9.620;2023-03-04T11:02:12;9.68;;;5.88;;
61741;SDS011;47650;49.848;9.620;2023-03-04T11:04:49;21.20;;;8.43;;
61741;SDS011;47650;49.848;9.620;2023-03-04T11:07:25;15.48;;;8.90;;
61741;SDS011;47650;49.848;9.620;2023-03-04T11:12:30;13.38;;;7.95;;
61741;SDS011;47650;49.848;9.620;2023-03-04T11:14:58;15.80;;;8.25;;
61741;SDS011;47650;49.848;9.620;2023-03-04T11:17:25;15.23;;;9.68;;
61741;SDS011;47650;49.848;9.620;2023-03-04T11:22:37;18.25;;;8.75;;
61741;SDS011;47650;49.848;9.620;2023-03-04T11:25:11;19.30;;;8.73;;
61741;SDS011;47650;49.848;9.620;2023-03-04T11:27:57;14.68;;;8.00;;
61741;SDS011;47650;49.848;9.620;2023-03-04T11:30:31;18.65;;;8.98;;
61741;SDS011;47650;49.848;9.620;2023-03-04T11:33:08;13.88;;;8.52;;
61741;SDS011;47650;49.848;9.620;2023-03-04T11:35:57;16.20;;;8.43;;
61741;SDS011;47650;49.848;9.620;2023-03-04T11:38:48;16.98;;;10.18;;
61741;SDS011;47650;49.848;9.620;2023-03-04T11:41:20;14.63;;;8.60;;
61741;SDS011;47650;49.848;9.620;2023-03-04T11:43:52;16.30;;;7.93;;
61741;SDS011;47650;49.848;9.620;2023-03-04T11:57:38;13.52;;;8.32;;
61741;SDS011;47650;49.848;9.620;2023-03-04T12:00:37;17.92;;;8.65;;
61741;SDS011;47650;49.848;9.620;2023-03-04T12:03:27;15.10;;;8.32;;
61741;SDS011;47650;49.848;9.620;2023-03-04T12:09:15;13.98;;;7.53;;
61741;SDS011;47650;49.848;9.620;2023-03-04T12:22:43;12.85;;;7.25;;
61741;SDS011;47650;49.848;9.620;2023-03-04T12:31:29;11.70;;;6.93;;
61741;SDS011;47650;49.848;9.620;2023-03-04T12:40:25;14.57;;;7.05;;
61741;SDS011;47650;49.848;9.620;2023-03-04T12:42:56;14.90;;;7.18;;
61741;SDS011;47650;49.848;9.620;2023-03-04T12:45:42;16.10;;;8.57;;
61741;SDS011;47650;49.848;9.620;2023-03-04T12:48:38;17.02;;;7.47;;
61741;SDS011;47650;49.848;9.620;2023-03-04T12:53:50;16.92;;;7.45;;
61741;SDS011;47650;49.848;9.620;2023-03-04T12:56:49;14.27;;;7.82;;
61741;SDS011;47650;49.848;9.620;2023-03-04T12:59:21;11.52;;;6.15;;
61741;SDS011;47650;49.848;9.620;2023-03-04T13:04:44;15.15;;;6.68;;
61741;SDS011;47650;49.848;9.620;2023-03-04T13:07:31;12.82;;;6.30;;
61741;SDS011;47650;49.848;9.620;2023-03-04T13:10:04;16.60;;;7.45;;
61741;SDS011;47650;49.848;9.620;2023-03-04T13:12:45;12.90;;;6.93;;
61741;SDS011;47650;49.848;9.620;2023-03-04T13:23:51;15.38;;;7.82;;
61741;SDS011;47650;49.848;9.620;2023-03-04T13:26:33;16.25;;;8.27;;
61741;SDS011;47650;49.848;9.620;2023-03-04T13:32:09;12.15;;;6.97;;
61741;SDS011;47650;49.848;9.620;2023-03-04T13:34:51;13.23;;;6.80;;
61741;SDS011;47650;49.848;9.620;2023-03-04T13:37:34;17.13;;;7.82;;
61741;SDS011;47650;49.848;9.620;2023-03-04T13:42:44;16.27;;;7.88;;
61741;SDS011;47650;49.848;9.620;2023-03-04T13:45:28;10.57;;;6.55;;
61741;SDS011;47650;49.848;9.620;2023-03-04T13:47:56;15.88;;;7.65;;
61741;SDS011;47650;49.848;9.620;2023-03-04T13:50:27;16.05;;;7.65;;
61741;SDS011;47650;49.848;9.620;2023-03-04T13:58:27;16.70;;;7.80;;
61741;SDS011;47650;49.848;9.620;2023-03-04T14:00:53;19.83;;;8.38;;
61741;SDS011;47650;49.848;9.620;2023-03-04T14:03:24;20.05;;;8.32;;
61741;SDS011;47650;49.848;9.620;2023-03-04T14:08:40;15.00;;;9.38;;
61741;SDS011;47650;49.848;9.620;2023-03-04T14:11:26;16.38;;;9.10;;
61741;SDS011;47650;49.848;9.620;2023-03-04T14:13:53;22.55;;;10.88;;
61741;SDS011;47650;49.848;9.620;2023-03-04T14:16:22;13.85;;;8.50;;
61741;SDS011;47650;49.848;9.620;2023-03-04T14:19:02;15.63;;;8.90;;
61741;SDS011;47650;49.848;9.620;2023-03-04T14:21:34;18.40;;;10.88;;
61741;SDS011;47650;49.848;9.620;2023-03-04T14:24:13;21.98;;;12.13;;
61741;SDS011;47650;49.848;9.620;2023-03-04T14:26:41;22.30;;;11.63;;
61741;SDS011;47650;49.848;9.620;2023-03-04T14:29:26;22.02;;;11.27;;
61741;SDS011;47650;49.848;9.620;2023-03-04T14:31:55;16.58;;;9.73;;
61741;SDS011;47650;49.848;9.620;2023-03-04T14:34:42;21.75;;;10.18;;
61741;SDS011;47650;49.848;9.620;2023-03-04T14:37:22;20.88;;;11.48;;
61741;SDS011;47650;49.848;9.620;2023-03-04T14:39:55;19.40;;;10.27;;
61741;SDS011;47650;49.848;9.620;2023-03-04T14:44:50;17.08;;;7.85;;
61741;SDS011;47650;49.848;9.620;2023-03-04T14:50:06;20.73;;;10.60;;
61741;SDS011;47650;49.848;9.620;2023-03-04T14:52:44;19.45;;;10.68;;
61741;SDS011;47650;49.848;9.620;2023-03-04T14:57:48;17.98;;;11.65;;
61741;SDS011;47650;49.848;9.620;2023-03-04T15:00:29;19.85;;;11.32;;
61741;SDS011;47650;49.848;9.620;2023-03-04T15:02:58;21.73;;;12.07;;
61741;SDS011;47650;49.848;9.620;2023-03-04T15:05:32;23.77;;;12.48;;
61741;SDS011;47650;49.848;9.620;2023-03-04T15:08:02;23.58;;;10.65;;
61741;SDS011;47650;49.848;9.620;2023-03-04T15:13:05;20.35;;;11.00;;
61741;SDS011;47650;49.848;9.620;2023-03-04T15:15:35;19.38;;;11.20;;
61741;SDS011;47650;49.848;9.620;2023-03-04T15:18:15;23.05;;;12.35;;
61741;SDS011;47650;49.848;9.620;2023-03-04T15:20:40;26.83;;;12.88;;
61741;SDS011;47650;49.848;9.620;2023-03-04T15:23:14;20.95;;;11.80;;
61741;SDS011;47650;49.848;9.620;2023-03-04T15:25:43;25.15;;;12.45;;
61741;SDS011;47650;49.848;9.620;2023-03-04T15:28:22;19.80;;;9.73;;
61741;SDS011;47650;49.848;9.620;2023-03-04T15:30:48;17.58;;;10.80;;
61741;SDS011;47650;49.848;9.620;2023-03-04T15:33:14;19.10;;;11.38;;
61741;SDS011;47650;49.848;9.620;2023-03-04T15:35:40;21.63;;;10.77;;
61741;SDS011;47650;49.848;9.620;2023-03-04T15:38:16;19.40;;;11.10;;
61741;SDS011;47650;49.848;9.620;2023-03-04T15:40:42;20.23;;;12.20;;
61741;SDS011;47650;49.848;9.620;2023-03-04T15:43:10;19.95;;;10.73;;
61741;SDS011;47650;49.848;9.620;2023-03-04T15:45:39;20.90;;;11.18;;
61741;SDS011;47650;49.848;9.620;2023-03-04T15:48:06;20.42;;;10.93;;
61741;SDS011;47650;49.848;9.620;2023-03-04T15:50:35;22.13;;;12.45;;
61741;SDS011;47650;49.848;9.620;2023-03-04T15:53:04;16.25;;;10.98;;
61741;SDS011;47650;49.848;9.620;2023-03-04T15:55:33;22.27;;;11.82;;
61741;SDS011;47650;49.848;9.620;2023-03-04T15:58:00;22.10;;;12.52;;
61741;SDS011;47650;49.848;9.620;2023-03-04T16:00:27;24.52;;;12.65;;
61741;SDS011;47650;49.848;9.620;2023-03-04T16:02:54;21.02;;;12.63;;
61741;SDS011;47650;49.848;9.620;2023-03-04T16:05:20;23.70;;;12.68;;
61741;SDS011;47650;49.848;9.620;2023-03-04T16:07:46;20.70;;;11.50;;
61741;SDS011;47650;49.848;9.620;2023-03-04T16:10:24;25.98;;;12.65;;
61741;SDS011;47650;49.848;9.620;2023-03-04T16:12:54;22.35;;;11.73;;
61741;SDS011;47650;49.848;9.620;2023-03-04T16:15:21;25.10;;;12.93;;
61741;SDS011;47650;49.848;9.620;2023-03-04T16:17:48;21.27;;;11.82;;
61741;SDS011;47650;49.848;9.620;2023-03-04T16:20:20;21.63;;;12.50;;
61741;SDS011;47650;49.848;9.620;2023-03-04T16:22:58;24.58;;;13.27;;
61741;SDS011;47650;49.848;9.620;2023-03-04T16:25:26;20.42;;;12.50;;
61741;SDS011;47650;49.848;9.620;2023-03-04T16:27:53;24.00;;;13.93;;
61741;SDS011;47650;49.848;9.620;2023-03-04T16:30:42;22.75;;;13.70;;
61741;SDS011;47650;49.848;9.620;2023-03-04T16:33:09;23.25;;;14.30;;
61741;SDS011;47650;49.848;9.620;2023-03-04T16:35:36;22.25;;;13.43;;
61741;SDS011;47650;49.848;9.620;2023-03-04T16:38:10;20.58;;;9.18;;
61741;SDS011;47650;49.848;9.620;2023-03-04T16:40:45;26.33;;;13.75;;
61741;SDS011;47650;49.848;9.620;2023-03-04T16:43:11;19.55;;;11.63;;
61741;SDS011;47650;49.848;9.620;2023-03-04T16:45:45;23.77;;;13.52;;
61741;SDS011;47650;49.848;9.620;2023-03-04T16:48:13;23.40;;;12.77;;
61741;SDS011;47650;49.848;9.620;2023-03-04T16:50:47;20.48;;;11.63;;
61741;SDS011;47650;49.848;9.620;2023-03-04T16:53:32;26.05;;;15.02;;